CheckWX is a tool to help pilots better visualize weather data.  It is not intended as a substitute for an official pre-flight weather briefing.

19:16:36 UTC

ETNH METAR
Hohn Airport
Germany
Current

34 mins ago

ETNH 261843Z 25012G22KT 2500 -DZ BR SCT003 BKN007 14/14 Q1004 REDZ YLO
Observed
May-26 @ 18:43 UTC
Wind
  • 250° at 12 KTS
  • Gusting to 22 KTS
Visibility
2,494 meters
Flight Rules
IFR
Conditions
Light Drizzle, Mist
Cloud Levels
  • Scattered at 300' AGL
  • Broken at 700' AGL
Temperature
14°C / 57°F
Dewpoint
14°C / 57°F
Humidity
100%
Altimeter
29.65" Hg
Pressure
1003.92 hPa
Previous

57 mins ago

ETNH 261820Z 24013G26KT 1800 DZRA BR SCT002 BKN005 14/14 Q1005 YLO
Observed
May-26 @ 18:20 UTC
Wind
  • 240° at 13 KTS
  • Gusting to 26 KTS
Visibility
1,802 meters
Flight Rules
IFR
Conditions
Drizzle, Rain, Mist
Cloud Levels
  • Scattered at 200' AGL
  • Broken at 500' AGL
Temperature
14°C / 57°F
Dewpoint
14°C / 57°F
Humidity
100%
Altimeter
29.68" Hg
Pressure
1004.92 hPa
Previous

2 hours ago

ETNH 261732Z 24013G25KT 2200 DZRA BR FEW003 BKN006 14/14 Q1005 YLO
Observed
May-26 @ 17:32 UTC
Wind
  • 240° at 13 KTS
  • Gusting to 25 KTS
Visibility
2,205 meters
Flight Rules
IFR
Conditions
Drizzle, Rain, Mist
Cloud Levels
  • Few at 300' AGL
  • Broken at 600' AGL
Temperature
14°C / 57°F
Dewpoint
14°C / 57°F
Humidity
100%
Altimeter
29.68" Hg
Pressure
1004.92 hPa